createdAt,value
2019-01-27T00:02:16.656Z,6.60
2019-01-27T00:04:42.696Z,6.60
2019-01-27T00:07:08.726Z,6.60
2019-01-27T00:09:34.950Z,6.70
2019-01-27T00:12:01.023Z,6.70
2019-01-27T00:14:27.249Z,6.60
2019-01-27T00:16:53.378Z,6.60
2019-01-27T00:19:19.452Z,6.60
2019-01-27T00:21:45.475Z,6.60
2019-01-27T00:24:11.515Z,6.60
2019-01-27T00:26:37.527Z,6.60
2019-01-27T00:29:03.650Z,6.70
2019-01-27T00:31:29.658Z,6.70
2019-01-27T00:33:55.696Z,6.60
2019-01-27T00:36:21.731Z,6.60
2019-01-27T00:38:47.744Z,6.60
2019-01-27T00:41:13.775Z,6.70
2019-01-27T00:43:39.791Z,6.70
2019-01-27T00:46:05.827Z,6.70
2019-01-27T00:48:31.830Z,6.70
2019-01-27T00:50:57.868Z,6.80
2019-01-27T00:53:23.884Z,6.70
2019-01-27T00:55:49.915Z,6.70
2019-01-27T00:58:15.958Z,6.80
2019-01-27T01:00:41.962Z,6.80
2019-01-27T01:03:07.979Z,6.70
2019-01-27T01:05:34.059Z,6.70
2019-01-27T01:08:00.077Z,6.70
2019-01-27T01:10:26.115Z,6.70
2019-01-27T01:12:54.938Z,6.80
2019-01-27T01:15:20.975Z,6.80
2019-01-27T01:17:46.986Z,6.80
2019-01-27T01:20:20.416Z,6.70
2019-01-27T01:22:47.694Z,6.70
2019-01-27T01:25:34.811Z,6.70
2019-01-27T01:28:00.823Z,6.80
2019-01-27T01:30:28.550Z,6.70
2019-01-27T01:32:55.171Z,6.70
2019-01-27T01:35:21.194Z,6.70
2019-01-27T01:38:09.023Z,6.80
2019-01-27T01:40:35.066Z,6.80
2019-01-27T01:43:01.071Z,6.80
2019-01-27T01:45:29.408Z,6.80
2019-01-27T01:47:55.433Z,6.90
2019-01-27T01:50:21.456Z,6.80
2019-01-27T01:52:47.463Z,6.80
2019-01-27T01:55:14.299Z,6.80
2019-01-27T01:57:40.311Z,6.90
2019-01-27T02:00:20.098Z,6.80
2019-01-27T02:02:46.154Z,6.80
2019-01-27T02:05:14.098Z,6.80
2019-01-27T02:07:40.122Z,6.80
2019-01-27T02:10:29.868Z,6.80
2019-01-27T02:12:55.900Z,6.90
2019-01-27T02:15:31.493Z,6.80
2019-01-27T02:17:57.522Z,6.80
2019-01-27T02:20:23.532Z,6.90
2019-01-27T02:22:49.583Z,6.90
2019-01-27T02:25:15.627Z,6.90
2019-01-27T02:27:41.746Z,6.90
2019-01-27T02:30:10.067Z,6.80
2019-01-27T02:32:36.089Z,6.80
2019-01-27T02:35:02.159Z,6.90
2019-01-27T02:37:28.167Z,6.80
2019-01-27T02:39:54.223Z,6.80
2019-01-27T02:42:20.243Z,6.70
2019-01-27T02:44:46.268Z,6.70
2019-01-27T02:47:12.299Z,6.70
2019-01-27T02:49:38.314Z,6.70
2019-01-27T02:52:04.340Z,6.70
2019-01-27T02:54:30.347Z,6.70
2019-01-27T02:56:56.364Z,6.70
2019-01-27T02:59:22.399Z,6.70
2019-01-27T03:01:48.410Z,6.80
2019-01-27T03:04:14.438Z,6.80
2019-01-27T03:06:42.396Z,6.80
2019-01-27T03:09:10.383Z,6.90
2019-01-27T03:11:48.036Z,6.80
2019-01-27T03:14:14.559Z,6.80
2019-01-27T03:16:40.568Z,6.70
2019-01-27T03:19:06.601Z,6.70
2019-01-27T03:21:32.604Z,6.70
2019-01-27T03:23:58.651Z,6.70
2019-01-27T03:26:24.668Z,6.80
2019-01-27T03:28:50.699Z,6.70
2019-01-27T03:31:16.713Z,6.70
2019-01-27T03:33:42.750Z,6.70
2019-01-27T03:36:08.774Z,6.70
2019-01-27T03:38:34.802Z,6.70
2019-01-27T03:41:00.835Z,6.70
2019-01-27T03:43:26.914Z,6.70
2019-01-27T03:45:52.950Z,6.60
2019-01-27T03:48:19.008Z,6.70
2019-01-27T03:50:45.127Z,6.70
2019-01-27T03:53:11.133Z,6.70
2019-01-27T03:55:37.143Z,6.70
2019-01-27T03:58:03.177Z,6.70
2019-01-27T04:00:29.182Z,6.70
2019-01-27T04:02:55.211Z,6.70
2019-01-27T04:05:21.227Z,6.70
2019-01-27T04:07:47.364Z,6.80
2019-01-27T04:10:19.191Z,6.80
2019-01-27T04:12:45.225Z,6.80
2019-01-27T04:15:11.758Z,6.70
2019-01-27T04:17:37.764Z,6.60
2019-01-27T04:20:10.231Z,6.60
2019-01-27T04:22:36.271Z,6.60
2019-01-27T04:25:03.013Z,6.60
2019-01-27T04:27:29.055Z,6.70
2019-01-27T04:29:55.088Z,6.70
2019-01-27T04:32:21.098Z,6.70
2019-01-27T04:34:47.127Z,6.70
2019-01-27T04:37:13.139Z,6.80
2019-01-27T04:39:39.197Z,6.70
2019-01-27T04:42:05.224Z,6.80
2019-01-27T04:44:31.235Z,6.80
2019-01-27T04:46:57.303Z,6.80
2019-01-27T04:49:23.337Z,6.80
2019-01-27T04:51:49.348Z,6.90
2019-01-27T04:54:15.383Z,6.80
2019-01-27T04:56:41.392Z,6.80
2019-01-27T04:59:07.410Z,6.80
2019-01-27T05:01:33.419Z,6.90
2019-01-27T05:04:01.353Z,6.90
2019-01-27T05:06:27.452Z,6.90
2019-01-27T05:08:53.479Z,6.90
2019-01-27T05:11:19.506Z,6.90
2019-01-27T05:13:45.514Z,6.90
2019-01-27T05:16:11.552Z,6.90
2019-01-27T05:18:37.595Z,6.90
2019-01-27T05:21:03.600Z,6.90
2019-01-27T05:23:29.647Z,6.80
2019-01-27T05:25:55.699Z,6.80
2019-01-27T05:28:21.732Z,6.80
2019-01-27T05:30:47.770Z,6.80
2019-01-27T05:33:14.000Z,6.80
2019-01-27T05:35:40.086Z,6.80
2019-01-27T05:38:06.161Z,6.80
2019-01-27T05:40:32.197Z,6.80
2019-01-27T05:42:58.208Z,6.70
2019-01-27T05:45:24.243Z,6.80
2019-01-27T05:47:50.247Z,6.80
2019-01-27T05:50:16.903Z,6.70
2019-01-27T05:52:42.945Z,6.70
2019-01-27T05:55:13.762Z,6.70
2019-01-27T05:57:39.791Z,6.70
2019-01-27T06:00:15.870Z,6.60
2019-01-27T06:02:41.905Z,6.70
2019-01-27T06:05:07.915Z,6.70
2019-01-27T06:07:33.958Z,6.70
2019-01-27T06:09:59.966Z,6.70
2019-01-27T06:12:26.000Z,6.80
2019-01-27T06:14:54.923Z,6.80
2019-01-27T06:17:20.960Z,6.80
2019-01-27T06:19:47.852Z,6.80
2019-01-27T06:22:13.863Z,6.80
2019-01-27T06:24:39.950Z,6.80
2019-01-27T06:27:05.959Z,6.80
2019-01-27T06:29:32.031Z,6.90
2019-01-27T06:31:58.045Z,6.80
2019-01-27T06:34:24.063Z,6.90
2019-01-27T06:36:50.079Z,6.90
2019-01-27T06:39:16.104Z,6.90
2019-01-27T06:41:42.131Z,6.90
2019-01-27T06:44:08.167Z,6.90
2019-01-27T06:46:34.174Z,6.80
2019-01-27T06:49:00.183Z,6.80
2019-01-27T06:51:26.219Z,6.80
2019-01-27T06:53:52.319Z,6.80
2019-01-27T06:56:18.359Z,6.80
2019-01-27T06:59:01.411Z,6.80
2019-01-27T07:01:32.351Z,6.70
2019-01-27T07:04:02.783Z,6.60
2019-01-27T07:06:47.598Z,6.70
2019-01-27T07:09:25.154Z,6.70
2019-01-27T07:11:53.099Z,6.70
2019-01-27T07:14:23.798Z,6.60
2019-01-27T07:16:54.619Z,6.60
2019-01-27T07:19:31.423Z,6.60
2019-01-27T07:22:14.224Z,6.60
2019-01-27T07:24:42.170Z,6.70
2019-01-27T07:27:16.155Z,6.70
2019-01-27T07:29:44.206Z,6.70
2019-01-27T07:32:12.451Z,6.80
2019-01-27T07:34:49.413Z,6.70
2019-01-27T07:37:23.307Z,6.60
2019-01-27T07:39:51.343Z,6.60
2019-01-27T07:42:19.334Z,6.60
2019-01-27T07:44:47.419Z,6.70
2019-01-27T07:47:17.992Z,6.70
2019-01-27T07:49:46.094Z,6.70
2019-01-27T07:52:19.967Z,6.70
2019-01-27T07:54:47.964Z,6.70
2019-01-27T07:57:16.043Z,6.70
2019-01-27T07:59:56.063Z,6.70
2019-01-27T08:02:30.031Z,6.70
2019-01-27T08:05:06.983Z,6.80
2019-01-27T08:07:34.939Z,6.80
2019-01-27T08:10:05.756Z,6.80
2019-01-27T08:12:36.590Z,6.80
2019-01-27T08:15:13.383Z,6.80
2019-01-27T08:17:47.375Z,6.80
2019-01-27T08:20:17.867Z,6.70
2019-01-27T08:22:48.823Z,6.70
2019-01-27T08:25:34.719Z,6.70
2019-01-27T08:28:19.339Z,6.80
2019-01-27T08:30:50.055Z,6.90
2019-01-27T08:33:20.787Z,6.90
2019-01-27T08:35:48.850Z,6.90
2019-01-27T08:38:25.509Z,6.90
2019-01-27T08:40:56.777Z,6.80
2019-01-27T08:43:27.279Z,6.80
2019-01-27T08:45:55.223Z,6.80
2019-01-27T08:48:21.231Z,6.80
2019-01-27T08:50:47.310Z,6.80
2019-01-27T08:53:13.338Z,6.90
2019-01-27T08:55:40.300Z,6.90
2019-01-27T08:58:06.556Z,7.00
2019-01-27T09:00:34.171Z,7.00
2019-01-27T09:03:11.295Z,7.00
2019-01-27T09:05:39.219Z,7.00
2019-01-27T09:08:10.167Z,7.00
2019-01-27T09:10:44.111Z,7.00
2019-01-27T09:13:12.028Z,7.00
2019-01-27T09:18:35.400Z,6.90
2019-01-27T09:21:06.107Z,6.90
2019-01-27T09:23:39.611Z,7.00
2019-01-27T09:26:16.100Z,7.10
2019-01-27T09:28:52.884Z,7.30
2019-01-27T09:31:37.446Z,7.40
2019-01-27T09:34:13.128Z,7.60
2019-01-27T09:36:40.866Z,7.90
2019-01-27T09:39:27.530Z,8.00
2019-01-27T09:42:12.338Z,8.00
2019-01-27T09:44:40.287Z,7.90
2019-01-27T09:47:14.220Z,7.80
2019-01-27T09:49:58.759Z,7.60
2019-01-27T09:52:26.743Z,7.50
2019-01-27T09:54:54.684Z,7.40
2019-01-27T09:57:39.284Z,7.50
2019-01-27T10:00:14.205Z,7.70
2019-01-27T10:02:42.145Z,7.90
2019-01-27T10:05:26.530Z,8.00
2019-01-27T10:08:12.619Z,8.20
2019-01-27T10:10:40.531Z,8.40
2019-01-27T10:13:08.543Z,8.40
2019-01-27T10:15:36.533Z,8.30
2019-01-27T10:18:04.474Z,8.30
2019-01-27T10:20:43.975Z,8.30
2019-01-27T10:23:17.711Z,8.60
2019-01-27T10:26:02.043Z,8.80
2019-01-27T10:28:48.190Z,9.20
2019-01-27T10:31:18.887Z,9.40
2019-01-27T10:33:58.775Z,9.80
2019-01-27T10:36:26.687Z,9.70
2019-01-27T10:38:54.623Z,9.70
2019-01-27T10:41:22.526Z,9.90
2019-01-27T10:43:50.495Z,10.00
2019-01-27T10:46:21.230Z,10.30
2019-01-27T10:48:58.188Z,10.50
2019-01-27T10:51:38.204Z,10.30
2019-01-27T10:54:06.363Z,9.80
2019-01-27T10:56:34.278Z,9.50
2019-01-27T10:59:05.111Z,9.30
2019-01-27T11:01:38.982Z,9.20
2019-01-27T11:04:12.697Z,9.10
2019-01-27T11:06:40.604Z,9.10
2019-01-27T11:09:09.044Z,9.00
2019-01-27T11:11:36.955Z,8.80
2019-01-27T11:14:21.479Z,8.90
2019-01-27T11:17:01.517Z,8.80
2019-01-27T11:19:32.187Z,8.90
2019-01-27T11:22:00.123Z,8.90
2019-01-27T11:24:30.832Z,9.00
2019-01-27T11:26:59.832Z,8.90
2019-01-27T11:29:33.657Z,8.90
2019-01-27T11:32:10.363Z,9.00
2019-01-27T11:34:41.055Z,9.10
2019-01-27T11:37:14.784Z,9.10
2019-01-27T11:39:48.797Z,9.00
2019-01-27T11:42:28.382Z,9.00
2019-01-27T11:45:02.398Z,9.10
2019-01-27T11:47:30.308Z,9.30
2019-01-27T11:50:00.998Z,9.50
2019-01-27T11:52:27.019Z,9.60
2019-01-27T11:54:53.143Z,9.30
2019-01-27T11:57:19.235Z,9.20
2019-01-27T11:59:45.260Z,9.10
2019-01-27T12:02:11.366Z,8.90
2019-01-27T12:04:37.408Z,8.80
2019-01-27T12:07:03.419Z,8.80
2019-01-27T12:09:29.455Z,8.70
2019-01-27T12:11:55.554Z,8.80
2019-01-27T12:14:21.588Z,8.70
2019-01-27T12:16:47.676Z,8.70
2019-01-27T12:19:13.755Z,8.70
2019-01-27T12:21:39.787Z,8.80
2019-01-27T12:24:05.909Z,8.80
2019-01-27T12:26:32.040Z,8.70
2019-01-27T12:28:58.053Z,8.60
2019-01-27T12:31:24.078Z,8.60
2019-01-27T12:33:50.091Z,8.60
2019-01-27T12:36:16.221Z,8.60
2019-01-27T12:38:42.227Z,8.70
2019-01-27T12:41:08.263Z,8.80
2019-01-27T12:43:34.278Z,8.80
2019-01-27T12:46:00.299Z,8.80
2019-01-27T12:48:26.343Z,8.80
2019-01-27T12:50:52.358Z,8.80
2019-01-27T12:53:18.392Z,8.70
2019-01-27T12:55:44.426Z,8.70
2019-01-27T12:58:10.462Z,8.60
2019-01-27T13:00:40.034Z,8.60
2019-01-27T13:03:06.060Z,8.80
2019-01-27T13:05:32.066Z,8.80
2019-01-27T13:07:58.094Z,8.80
2019-01-27T13:10:24.152Z,8.90
2019-01-27T13:12:50.158Z,9.00
2019-01-27T13:15:18.087Z,9.00
2019-01-27T13:17:44.089Z,9.00
2019-01-27T13:20:11.526Z,8.90
2019-01-27T13:22:37.534Z,9.00
2019-01-27T13:25:10.183Z,8.80
2019-01-27T13:27:36.224Z,8.80
2019-01-27T13:30:08.678Z,8.70
2019-01-27T13:32:34.720Z,8.80
2019-01-27T13:35:00.832Z,9.00
2019-01-27T13:37:26.879Z,9.00
2019-01-27T13:39:52.933Z,8.90
2019-01-27T13:42:18.945Z,8.80
2019-01-27T13:44:44.980Z,8.60
2019-01-27T13:47:11.011Z,8.50
2019-01-27T13:49:37.143Z,8.50
2019-01-27T13:52:03.142Z,8.40
2019-01-27T13:54:29.166Z,8.50
2019-01-27T13:56:55.215Z,8.40
2019-01-27T13:59:21.275Z,8.40
2019-01-27T14:01:47.310Z,8.30
2019-01-27T14:04:13.350Z,8.30
2019-01-27T14:06:39.387Z,8.30
2019-01-27T14:09:05.423Z,8.20
2019-01-27T14:11:31.501Z,8.20
2019-01-27T14:13:57.542Z,8.20
2019-01-27T14:16:23.560Z,8.30
2019-01-27T14:18:49.595Z,8.30
2019-01-27T14:21:16.665Z,8.30
2019-01-27T14:23:42.962Z,8.20
2019-01-27T14:26:08.986Z,8.20
2019-01-27T14:28:35.019Z,8.20
2019-01-27T14:31:01.119Z,8.10
2019-01-27T14:33:47.038Z,8.00
2019-01-27T14:36:13.071Z,7.90
2019-01-27T14:38:39.108Z,7.80
2019-01-27T14:41:06.349Z,7.90
2019-01-27T14:43:32.478Z,7.90
2019-01-27T14:45:58.852Z,7.90
2019-01-27T14:48:24.998Z,7.80
2019-01-27T14:50:51.006Z,7.90
2019-01-27T14:53:17.095Z,7.90
2019-01-27T14:55:43.130Z,7.80
2019-01-27T14:58:09.170Z,7.80
2019-01-27T15:00:37.479Z,7.80
2019-01-27T15:03:04.340Z,7.80
2019-01-27T15:05:30.411Z,7.90
2019-01-27T15:07:56.427Z,7.90
2019-01-27T15:10:22.562Z,7.80
2019-01-27T15:12:48.566Z,7.80
2019-01-27T15:15:16.736Z,7.70
2019-01-27T15:17:42.859Z,7.60
2019-01-27T15:20:23.049Z,7.70
2019-01-27T15:22:49.096Z,7.60
2019-01-27T15:25:15.170Z,7.60
2019-01-27T15:27:41.212Z,7.50
2019-01-27T15:30:16.403Z,7.50
2019-01-27T15:32:54.524Z,7.50
2019-01-27T15:35:20.546Z,7.50
2019-01-27T15:37:46.594Z,7.50
2019-01-27T15:40:13.747Z,7.40
2019-01-27T15:42:39.827Z,7.30
2019-01-27T15:45:12.448Z,7.30
2019-01-27T15:47:38.450Z,7.20
2019-01-27T15:50:08.011Z,7.20
2019-01-27T15:52:34.107Z,7.30
2019-01-27T15:55:00.227Z,7.30
2019-01-27T15:57:26.242Z,7.20
2019-01-27T15:59:52.276Z,7.10
2019-01-27T16:02:18.293Z,7.20
2019-01-27T16:04:44.324Z,7.20
2019-01-27T16:07:10.826Z,7.20
2019-01-27T16:09:36.954Z,7.30
2019-01-27T16:12:02.979Z,7.20
2019-01-27T16:14:29.083Z,7.20
2019-01-27T16:16:55.124Z,7.20
2019-01-27T16:19:21.130Z,7.20
2019-01-27T16:21:47.181Z,7.20
2019-01-27T16:24:15.101Z,7.20
2019-01-27T16:26:41.146Z,7.20
2019-01-27T16:29:07.175Z,7.20
2019-01-27T16:31:35.175Z,7.20
2019-01-27T16:34:03.156Z,7.20
2019-01-27T16:36:29.183Z,7.30
2019-01-27T16:39:15.084Z,7.30
2019-01-27T16:41:41.128Z,7.30
2019-01-27T16:44:07.151Z,7.30
2019-01-27T16:46:33.223Z,7.20
2019-01-27T16:48:59.305Z,7.30
2019-01-27T16:51:25.326Z,7.20
2019-01-27T16:53:51.343Z,7.10
2019-01-27T16:56:17.467Z,7.10
2019-01-27T16:58:43.479Z,7.00
2019-01-27T17:01:09.647Z,6.80
2019-01-27T17:03:35.743Z,6.70
2019-01-27T17:06:01.776Z,6.70
2019-01-27T17:08:27.799Z,6.60
2019-01-27T17:10:53.815Z,6.60
2019-01-27T17:13:19.999Z,6.60
2019-01-27T17:15:46.006Z,6.50
2019-01-27T17:18:12.154Z,6.40
2019-01-27T17:20:38.186Z,6.40
2019-01-27T17:23:04.239Z,6.30
2019-01-27T17:25:30.253Z,6.20
2019-01-27T17:27:56.322Z,6.10
2019-01-27T17:30:23.964Z,5.90
2019-01-27T17:32:50.420Z,5.90
2019-01-27T17:35:16.447Z,5.80
2019-01-27T17:37:42.454Z,5.70
2019-01-27T17:40:11.699Z,5.70
2019-01-27T17:42:37.711Z,5.60
2019-01-27T17:45:10.604Z,5.60
2019-01-27T17:47:36.615Z,5.60
2019-01-27T17:50:22.828Z,5.50
2019-01-27T17:52:48.844Z,5.50
2019-01-27T17:55:39.898Z,5.40
2019-01-27T17:58:26.492Z,5.40
2019-01-27T18:01:09.512Z,5.30
2019-01-27T18:03:54.405Z,5.10
2019-01-27T18:06:22.526Z,5.10
2019-01-27T18:08:54.544Z,5.10
2019-01-27T18:11:22.695Z,5.10
2019-01-27T18:13:49.202Z,5.10
2019-01-27T18:16:15.343Z,5.10
2019-01-27T18:18:41.356Z,5.20
2019-01-27T18:21:07.386Z,5.00
2019-01-27T18:23:33.429Z,4.90
2019-01-27T18:25:59.476Z,4.70
2019-01-27T18:28:25.555Z,4.70
2019-01-27T18:30:51.559Z,4.70
2019-01-27T18:33:17.592Z,4.60
2019-01-27T18:35:43.611Z,4.60
2019-01-27T18:38:09.661Z,4.60
2019-01-27T18:40:35.663Z,4.60
2019-01-27T18:43:01.836Z,4.70
2019-01-27T18:45:27.873Z,4.70
2019-01-27T18:47:53.900Z,4.60
2019-01-27T18:50:19.978Z,4.50
2019-01-27T18:52:46.703Z,4.50
2019-01-27T18:55:17.466Z,4.60
2019-01-27T18:57:48.162Z,4.60
2019-01-27T19:00:19.240Z,4.60
2019-01-27T19:02:47.156Z,4.70
2019-01-27T19:05:31.508Z,4.60
2019-01-27T19:08:14.516Z,4.60
2019-01-27T19:10:42.466Z,4.60
2019-01-27T19:13:19.132Z,4.60
2019-01-27T19:19:04.651Z,4.50
2019-01-27T19:21:35.447Z,4.50
2019-01-27T19:24:18.575Z,4.50
2019-01-27T19:26:46.514Z,4.50
2019-01-27T19:29:17.116Z,4.50
2019-01-27T19:32:00.470Z,4.50
2019-01-27T19:34:28.559Z,4.50
2019-01-27T19:36:56.468Z,4.60
2019-01-27T19:39:27.211Z,4.70
2019-01-27T19:41:55.115Z,4.60
2019-01-27T19:44:25.816Z,4.60
2019-01-27T19:46:56.482Z,4.60
2019-01-27T19:49:24.418Z,4.60
2019-01-27T19:51:52.376Z,4.60
2019-01-27T19:54:26.287Z,4.60
2019-01-27T19:57:03.036Z,4.60
2019-01-27T19:59:33.487Z,4.60
2019-01-27T20:02:04.204Z,4.70
2019-01-27T20:07:37.435Z,4.60
2019-01-27T20:10:10.892Z,4.60
2019-01-27T20:12:51.254Z,4.50
2019-01-27T20:15:21.694Z,4.50
2019-01-27T20:17:49.635Z,4.40
2019-01-27T20:20:26.762Z,4.50
2019-01-27T20:22:57.456Z,4.50
2019-01-27T20:25:25.387Z,4.50
2019-01-27T20:27:53.303Z,4.60
2019-01-27T20:30:23.902Z,4.50
2019-01-27T20:33:20.576Z,4.50
2019-01-27T20:36:05.156Z,4.50
2019-01-27T20:38:35.879Z,4.50
2019-01-27T20:41:12.926Z,4.50
2019-01-27T20:43:43.655Z,4.60
2019-01-27T20:46:11.606Z,4.60
2019-01-27T20:48:42.301Z,4.70
2019-01-27T20:51:39.036Z,4.70
2019-01-27T20:54:15.580Z,4.80
2019-01-27T20:56:43.519Z,4.80
2019-01-27T20:59:11.450Z,4.80
2019-01-27T21:01:41.874Z,4.80
2019-01-27T21:04:18.711Z,4.80
2019-01-27T21:06:46.727Z,4.70
2019-01-27T21:09:14.658Z,4.70
2019-01-27T21:11:42.575Z,4.70
2019-01-27T21:14:10.515Z,4.80
2019-01-27T21:16:38.434Z,4.90
2019-01-27T21:19:06.363Z,4.70
2019-01-27T21:21:32.455Z,4.70
2019-01-27T21:23:58.497Z,4.70
2019-01-27T21:26:24.527Z,4.70
2019-01-27T21:28:50.543Z,4.60
2019-01-27T21:31:16.590Z,4.60
2019-01-27T21:33:42.614Z,4.70
2019-01-27T21:36:08.651Z,4.70
2019-01-27T21:38:34.679Z,4.70
2019-01-27T21:41:00.732Z,4.80
2019-01-27T21:43:26.731Z,4.80
2019-01-27T21:45:52.778Z,4.80
2019-01-27T21:48:18.791Z,4.80
2019-01-27T21:50:44.831Z,4.90
2019-01-27T21:53:10.843Z,4.90
2019-01-27T21:55:36.859Z,4.90
2019-01-27T21:58:02.915Z,5.00
2019-01-27T22:00:28.927Z,4.90
2019-01-27T22:02:54.971Z,4.90
2019-01-27T22:05:20.987Z,4.90
2019-01-27T22:07:47.012Z,4.90
2019-01-27T22:10:13.627Z,4.90
2019-01-27T22:12:39.659Z,4.90
2019-01-27T22:15:05.948Z,4.90
2019-01-27T22:17:32.031Z,4.90
2019-01-27T22:19:58.103Z,4.80
2019-01-27T22:22:24.149Z,4.70
2019-01-27T22:24:50.154Z,4.70
2019-01-27T22:27:16.191Z,4.70
2019-01-27T22:29:42.239Z,4.70
2019-01-27T22:32:08.315Z,4.60
2019-01-27T22:34:34.534Z,4.60
2019-01-27T22:37:00.670Z,4.60
2019-01-27T22:39:26.727Z,4.60
2019-01-27T22:41:52.967Z,4.50
2019-01-27T22:44:19.055Z,4.50
2019-01-27T22:46:45.075Z,4.60
2019-01-27T22:49:11.325Z,4.50
2019-01-27T22:51:37.676Z,4.50
2019-01-27T22:54:03.739Z,4.50
2019-01-27T22:56:29.800Z,4.50
2019-01-27T22:58:56.019Z,4.50
2019-01-27T23:01:22.030Z,4.50
2019-01-27T23:03:48.083Z,4.50
2019-01-27T23:06:14.110Z,4.40
2019-01-27T23:08:40.176Z,4.50
2019-01-27T23:11:06.251Z,4.50
2019-01-27T23:13:32.299Z,4.40
2019-01-27T23:15:58.336Z,4.50
2019-01-27T23:18:24.343Z,4.60
2019-01-27T23:20:50.371Z,4.60
2019-01-27T23:23:16.414Z,4.60
2019-01-27T23:25:42.423Z,4.70
2019-01-27T23:28:08.548Z,4.60
2019-01-27T23:30:34.580Z,4.60
2019-01-27T23:33:00.719Z,4.50
2019-01-27T23:35:26.756Z,4.60
2019-01-27T23:37:52.764Z,4.60
2019-01-27T23:40:18.812Z,4.50
2019-01-27T23:42:44.986Z,4.60
2019-01-27T23:45:11.506Z,4.70
2019-01-27T23:47:37.518Z,4.60
2019-01-27T23:50:05.344Z,4.60
2019-01-27T23:52:31.368Z,4.60
2019-01-27T23:54:57.402Z,4.60
2019-01-27T23:57:43.316Z,4.60
